Time;durP1;ratioP1;P1;durP2;ratioP2;P2;SDS_P1;SDS_P2;PMS_P1;PMS_P2;Temp;Humidity;BMP_temperature;BMP_pressure;BME280_temperature;BME280_humidity;BME280_pressure;Samples;Min_cycle;Max_cycle;Signal;HPM_P1;HPM_P2
2023/09/13 00:10:24;;;;;;;6.45;5.80;;;;;;;;;;4988945;28;20717;-93
2023/09/13 00:12:54;;;;;;;5.85;5.25;;;;;;;;;;5008083;28;20238;-96
2023/09/13 00:15:21;;;;;;;8.82;6.22;;;;;;;;;;5013611;28;20296;-94
2023/09/13 00:17:49;;;;;;;8.98;6.40;;;;;;;;;;5012647;28;20212;-95
2023/09/13 00:20:18;;;;;;;8.82;5.93;;;;;;;;;;5015485;28;20195;-96
2023/09/13 00:22:49;;;;;;;9.07;6.07;;;;;;;;;;5014014;28;20275;-93
2023/09/13 00:25:16;;;;;;;8.77;6.45;;;;;;;;;;5001398;28;20251;-93
2023/09/13 00:27:44;;;;;;;6.97;5.53;;;;;;;;;;5000385;28;20216;-94
2023/09/13 00:30:12;;;;;;;5.55;5.05;;;;;;;;;;4999094;28;20346;-93
2023/09/13 00:32:40;;;;;;;7.00;5.90;;;;;;;;;;4997034;28;20207;-93
2023/09/13 00:48:08;;;;;;;5.85;5.25;;;;;;;;;;4917444;29;20210;-93
2023/09/13 00:53:29;;;;;;;7.30;5.80;;;;;;;;;;4993890;28;20228;-92
2023/09/13 00:56:11;;;;;;;6.22;5.60;;;;;;;;;;4998193;28;20235;-93
2023/09/13 00:59:05;;;;;;;7.70;6.10;;;;;;;;;;4997135;28;20212;-94
2023/09/13 01:01:49;;;;;;;8.25;6.32;;;;;;;;;;4996845;28;20238;-94
2023/09/13 01:05:04;;;;;;;;;;;;;;;;;;;;;
2023/09/13 01:07:48;;;;;;;7.60;6.00;;;;;;;;;;4995226;28;20693;-94
2023/09/13 01:38:06;;;;;;;8.00;5.82;;;;;;;;;;4954462;28;20288;-93
2023/09/13 01:43:39;;;;;;;10.80;6.85;;;;;;;;;;4929461;29;20265;-93
2023/09/13 01:49:22;;;;;;;;;;;;;;;;;;;;;
2023/09/13 01:51:57;;;;;;;6.90;5.45;;;;;;;;;;4994626;28;20219;-93
2023/09/13 01:54:27;;;;;;;8.05;5.97;;;;;;;;;;4994325;28;20281;-94
2023/09/13 01:57:02;;;;;;;6.28;5.30;;;;;;;;;;4995119;28;20228;-93
2023/09/13 01:59:37;;;;;;;6.82;5.28;;;;;;;;;;4994989;28;20237;-93
2023/09/13 02:02:19;;;;;;;7.40;6.00;;;;;;;;;;4994823;28;20243;-93
2023/09/13 02:04:50;;;;;;;7.85;5.35;;;;;;;;;;4993937;28;20224;-94
2023/09/13 02:07:47;;;;;;;8.57;5.93;;;;;;;;;;4994135;28;20211;-93
2023/09/13 02:10:21;;;;;;;5.82;5.22;;;;;;;;;;4994374;28;20224;-94
2023/09/13 02:13:06;;;;;;;7.20;5.95;;;;;;;;;;4994621;28;20286;-93
2023/09/13 02:15:54;;;;;;;7.35;6.03;;;;;;;;;;4994438;28;20223;-93
2023/09/13 02:18:40;;;;;;;6.57;5.65;;;;;;;;;;4994525;28;20287;-94
2023/09/13 02:21:41;;;;;;;5.93;5.25;;;;;;;;;;4994266;28;20254;-93
2023/09/13 02:24:22;;;;;;;8.70;6.22;;;;;;;;;;4994273;28;20217;-93
2023/09/13 02:27:08;;;;;;;;;;;;;;;;;;;;;
2023/09/13 02:30:03;;;;;;;9.90;6.30;;;;;;;;;;4994051;28;20219;-93
2023/09/13 02:32:46;;;;;;;6.78;6.00;;;;;;;;;;4993949;28;20274;-93
2023/09/13 02:40:49;;;;;;;6.47;5.77;;;;;;;;;;5073617;23;20234;-36
2023/09/13 02:43:16;;;;;;;10.73;6.90;;;;;;;;;;4989792;28;20243;-33
2023/09/13 02:45:43;;;;;;;7.93;5.95;;;;;;;;;;4990501;28;20649;-34
2023/09/13 02:48:11;;;;;;;6.03;5.43;;;;;;;;;;4987818;28;20334;-43
2023/09/13 02:50:42;;;;;;;10.50;6.15;;;;;;;;;;4982844;28;20229;-40
2023/09/13 02:53:10;;;;;;;9.05;5.55;;;;;;;;;;4974198;28;20208;-36
2023/09/13 02:55:37;;;;;;;5.88;5.28;;;;;;;;;;4970764;28;20212;-35
2023/09/13 02:58:05;;;;;;;8.80;6.55;;;;;;;;;;4973345;28;20201;-38
2023/09/13 03:00:33;;;;;;;8.48;6.40;;;;;;;;;;4974308;28;20726;-42
2023/09/13 03:03:00;;;;;;;6.40;5.80;;;;;;;;;;4970447;28;20201;-39
2023/09/13 03:05:27;;;;;;;9.50;6.45;;;;;;;;;;4979565;28;20208;-36
2023/09/13 03:07:56;;;;;;;8.30;6.45;;;;;;;;;;4985750;28;20214;-36
2023/09/13 03:10:24;;;;;;;6.88;5.78;;;;;;;;;;4972671;28;20232;-37
2023/09/13 03:12:51;;;;;;;6.22;5.63;;;;;;;;;;4974944;28;20243;-33
2023/09/13 03:15:18;;;;;;;7.38;5.65;;;;;;;;;;4975301;28;20227;-41
2023/09/13 03:17:45;;;;;;;7.03;5.90;;;;;;;;;;4976836;28;20213;-37
2023/09/13 03:20:13;;;;;;;6.38;5.75;;;;;;;;;;4969226;28;20224;-37
2023/09/13 03:22:40;;;;;;;5.83;5.13;;;;;;;;;;4972026;28;20204;-38
2023/09/13 03:25:09;;;;;;;6.70;5.97;;;;;;;;;;4966479;28;20215;-37
2023/09/13 03:27:37;;;;;;;7.65;5.97;;;;;;;;;;4982663;28;20213;-38
2023/09/13 03:30:05;;;;;;;6.82;5.88;;;;;;;;;;4974124;28;20228;-38
2023/09/13 03:32:32;;;;;;;7.03;5.68;;;;;;;;;;4982677;28;20215;-38
2023/09/13 03:34:59;;;;;;;9.15;6.13;;;;;;;;;;4971284;28;20228;-35
2023/09/13 03:37:26;;;;;;;4.90;4.40;;;;;;;;;;4975167;28;20212;-37
2023/09/13 03:39:54;;;;;;;7.87;6.00;;;;;;;;;;4962554;28;20707;-38
2023/09/13 03:42:22;;;;;;;8.10;6.03;;;;;;;;;;4971075;28;20204;-38
2023/09/13 03:44:49;;;;;;;7.00;6.28;;;;;;;;;;4969532;28;20192;-33
2023/09/13 03:47:16;;;;;;;9.13;5.97;;;;;;;;;;4973307;28;20208;-39
2023/09/13 03:49:43;;;;;;;6.35;5.75;;;;;;;;;;4968059;28;20319;-40
2023/09/13 03:52:11;;;;;;;12.10;7.13;;;;;;;;;;4976674;28;20214;-39
2023/09/13 03:54:38;;;;;;;6.78;6.07;;;;;;;;;;4964010;28;20246;-39
2023/09/13 03:57:05;;;;;;;11.10;6.55;;;;;;;;;;4975474;28;20219;-36
2023/09/13 03:59:34;;;;;;;6.15;5.40;;;;;;;;;;4970767;28;20229;-36
2023/09/13 04:02:01;;;;;;;7.72;6.00;;;;;;;;;;4973851;28;20200;-34
2023/09/13 04:04:28;;;;;;;7.30;6.07;;;;;;;;;;4967497;28;20412;-39
2023/09/13 04:06:55;;;;;;;8.00;6.35;;;;;;;;;;4967238;28;20646;-40
2023/09/13 04:09:22;;;;;;;7.15;5.60;;;;;;;;;;4967199;28;20328;-37
2023/09/13 04:14:54;;;;;;;6.68;5.40;;;;;;;;;;4979413;28;20358;-35
2023/09/13 04:17:21;;;;;;;8.75;6.28;;;;;;;;;;4974813;28;20647;-35
2023/09/13 04:19:48;;;;;;;6.30;5.70;;;;;;;;;;4972502;28;20228;-37
2023/09/13 04:22:16;;;;;;;6.90;6.20;;;;;;;;;;4973008;28;20220;-39
2023/09/13 04:24:43;;;;;;;7.35;6.57;;;;;;;;;;4968658;28;20239;-35
2023/09/13 04:27:10;;;;;;;7.07;6.38;;;;;;;;;;4966926;28;20200;-33
2023/09/13 04:29:39;;;;;;;5.97;5.30;;;;;;;;;;4972985;28;20231;-38
2023/09/13 04:32:08;;;;;;;6.43;5.82;;;;;;;;;;4970983;28;20240;-32
2023/09/13 04:34:37;;;;;;;8.25;6.25;;;;;;;;;;4971306;28;20239;-35
2023/09/13 04:37:05;;;;;;;8.03;5.60;;;;;;;;;;4973520;28;20207;-35
2023/09/13 04:39:32;;;;;;;8.37;5.87;;;;;;;;;;4963632;28;20733;-37
2023/09/13 04:41:59;;;;;;;8.10;5.85;;;;;;;;;;4964846;28;20208;-40
2023/09/13 04:44:26;;;;;;;5.47;4.80;;;;;;;;;;4974207;28;20205;-34
2023/09/13 04:46:54;;;;;;;6.65;5.47;;;;;;;;;;4974825;28;20219;-30
2023/09/13 04:49:23;;;;;;;8.03;5.00;;;;;;;;;;4960217;28;20598;-39
2023/09/13 04:51:50;;;;;;;6.78;6.05;;;;;;;;;;4967829;28;20567;-38
2023/09/13 04:54:17;;;;;;;6.25;5.40;;;;;;;;;;4968391;28;20586;-33
2023/09/13 04:56:44;;;;;;;7.17;5.80;;;;;;;;;;4965729;28;20663;-40
2023/09/13 04:59:11;;;;;;;5.17;4.67;;;;;;;;;;4974422;28;20230;-37
2023/09/13 05:01:38;;;;;;;6.43;4.53;;;;;;;;;;4973025;28;20212;-38
2023/09/13 05:04:06;;;;;;;5.60;4.90;;;;;;;;;;4969573;28;20223;-40
2023/09/13 05:06:34;;;;;;;5.10;4.60;;;;;;;;;;4973974;28;20209;-39
2023/09/13 05:09:01;;;;;;;5.50;4.70;;;;;;;;;;4971662;28;20307;-41
2023/09/13 05:11:28;;;;;;;5.10;4.57;;;;;;;;;;4970637;28;20215;-41
2023/09/13 05:14:09;;;;;;;6.10;4.83;;;;;;;;;;4976197;28;20685;-38
2023/09/13 05:16:36;;;;;;;7.63;5.17;;;;;;;;;;4973885;28;20200;-35
2023/09/13 05:19:03;;;;;;;6.97;5.17;;;;;;;;;;4970827;28;20317;-42
2023/09/13 05:21:31;;;;;;;6.17;5.50;;;;;;;;;;4972516;28;20220;-40
2023/09/13 05:23:59;;;;;;;5.03;4.53;;;;;;;;;;4968652;28;20299;-35
2023/09/13 05:26:27;;;;;;;5.68;4.72;;;;;;;;;;4970677;28;20262;-40
2023/09/13 05:28:54;;;;;;;7.85;5.38;;;;;;;;;;4972160;28;20209;-35
2023/09/13 05:31:21;;;;;;;5.77;5.17;;;;;;;;;;4971616;28;20292;-38
2023/09/13 05:33:48;;;;;;;5.27;4.57;;;;;;;;;;4966721;28;20291;-38
2023/09/13 05:36:16;;;;;;;5.57;5.07;;;;;;;;;;4971671;28;20311;-35
2023/09/13 05:38:43;;;;;;;5.70;4.72;;;;;;;;;;4971880;28;20236;-42
2023/09/13 05:41:12;;;;;;;6.10;5.47;;;;;;;;;;4964029;28;20212;-36
2023/09/13 05:43:40;;;;;;;8.27;5.27;;;;;;;;;;4969983;28;20232;-38
2023/09/13 05:46:08;;;;;;;5.15;3.95;;;;;;;;;;4972386;28;20242;-41
2023/09/13 05:48:36;;;;;;;6.68;5.20;;;;;;;;;;4971867;28;20642;-37
2023/09/13 05:51:03;;;;;;;6.53;5.90;;;;;;;;;;4963433;28;20215;-39
2023/09/13 05:53:31;;;;;;;4.88;4.47;;;;;;;;;;4973254;28;20208;-37
2023/09/13 05:55:58;;;;;;;8.63;4.57;;;;;;;;;;4962997;28;20317;-42
2023/09/13 05:58:27;;;;;;;7.13;4.87;;;;;;;;;;4968126;28;20295;-40
2023/09/13 06:00:55;;;;;;;10.10;6.33;;;;;;;;;;4971719;28;20230;-39
2023/09/13 06:03:22;;;;;;;7.10;5.40;;;;;;;;;;4976605;28;20220;-36
2023/09/13 06:05:51;;;;;;;5.93;5.07;;;;;;;;;;4976443;28;20750;-35
2023/09/13 06:08:18;;;;;;;9.18;5.68;;;;;;;;;;4966414;28;20275;-39
2023/09/13 06:10:46;;;;;;;9.93;5.70;;;;;;;;;;4966702;28;20232;-38
2023/09/13 06:13:15;;;;;;;6.80;5.23;;;;;;;;;;4968703;28;20211;-37
2023/09/13 06:15:43;;;;;;;6.60;5.73;;;;;;;;;;4968715;28;20232;-40
2023/09/13 06:18:10;;;;;;;4.63;4.23;;;;;;;;;;4970839;28;20659;-36
2023/09/13 06:20:38;;;;;;;7.57;6.40;;;;;;;;;;4972644;28;20229;-33
2023/09/13 06:23:05;;;;;;;9.85;5.90;;;;;;;;;;4974297;28;20209;-38
2023/09/13 06:25:32;;;;;;;8.93;5.63;;;;;;;;;;4970566;28;20205;-35
2023/09/13 06:27:59;;;;;;;7.53;6.13;;;;;;;;;;4979837;28;20204;-33
2023/09/13 06:30:28;;;;;;;9.85;6.20;;;;;;;;;;4987404;28;20252;-35
2023/09/13 06:32:57;;;;;;;8.23;5.53;;;;;;;;;;4972889;28;20895;-39
2023/09/13 06:35:24;;;;;;;10.10;6.03;;;;;;;;;;4973114;28;20232;-34
2023/09/13 06:37:51;;;;;;;9.10;5.97;;;;;;;;;;4979645;28;20659;-32
2023/09/13 06:40:18;;;;;;;6.77;5.27;;;;;;;;;;4970063;28;20232;-36
2023/09/13 06:42:45;;;;;;;7.53;5.70;;;;;;;;;;4985877;28;20240;-39
2023/09/13 06:45:13;;;;;;;7.63;5.27;;;;;;;;;;4978696;28;20205;-38
2023/09/13 06:47:40;;;;;;;5.72;5.13;;;;;;;;;;4970403;28;20632;-35
2023/09/13 06:50:09;;;;;;;6.23;5.57;;;;;;;;;;4981784;28;20220;-38
2023/09/13 06:52:36;;;;;;;8.20;5.80;;;;;;;;;;4982139;28;20241;-38
2023/09/13 06:55:04;;;;;;;7.60;5.37;;;;;;;;;;4976229;28;20289;-35
2023/09/13 06:57:32;;;;;;;10.03;5.93;;;;;;;;;;4981174;28;20208;-36
2023/09/13 06:59:59;;;;;;;6.20;5.60;;;;;;;;;;4979772;28;20224;-42
2023/09/13 07:02:26;;;;;;;8.33;6.20;;;;;;;;;;4977228;28;20223;-41
2023/09/13 07:04:53;;;;;;;7.55;5.50;;;;;;;;;;4980039;28;20201;-35
2023/09/13 07:07:22;;;;;;;6.80;5.72;;;;;;;;;;4982808;28;20212;-32
2023/09/13 07:09:49;;;;;;;5.40;4.90;;;;;;;;;;4979204;28;20225;-36
2023/09/13 07:12:16;;;;;;;6.78;5.53;;;;;;;;;;4989809;28;20208;-41
2023/09/13 07:14:43;;;;;;;7.60;5.75;;;;;;;;;;4977858;28;20246;-29
2023/09/13 07:17:11;;;;;;;8.23;5.97;;;;;;;;;;4976822;28;20200;-36
2023/09/13 07:19:38;;;;;;;6.95;5.78;;;;;;;;;;4978174;28;20228;-34
2023/09/13 07:22:05;;;;;;;7.90;6.88;;;;;;;;;;4971039;28;20288;-35
2023/09/13 07:24:33;;;;;;;6.22;5.65;;;;;;;;;;4973502;28;20567;-33
2023/09/13 07:27:01;;;;;;;7.93;7.13;;;;;;;;;;4973932;28;20292;-31
2023/09/13 07:29:28;;;;;;;17.00;6.97;;;;;;;;;;4980612;28;20248;-38
2023/09/13 07:31:55;;;;;;;8.02;6.53;;;;;;;;;;4970004;28;20287;-41
2023/09/13 07:34:24;;;;;;;7.88;7.05;;;;;;;;;;4971715;28;20216;-34
2023/09/13 07:36:52;;;;;;;7.78;6.13;;;;;;;;;;4972305;28;20230;-37
2023/09/13 07:39:19;;;;;;;6.07;5.10;;;;;;;;;;4966539;28;20311;-30
2023/09/13 07:41:47;;;;;;;9.85;5.03;;;;;;;;;;4963713;28;20216;-32
2023/09/13 07:44:16;;;;;;;8.40;5.00;;;;;;;;;;4967787;28;20223;-33
2023/09/13 07:46:43;;;;;;;6.85;6.18;;;;;;;;;;4967244;28;20252;-40
2023/09/13 07:49:10;;;;;;;7.68;6.05;;;;;;;;;;4961130;28;20263;-35
2023/09/13 07:51:37;;;;;;;5.25;4.75;;;;;;;;;;4967576;28;20211;-39
2023/09/13 07:54:12;;;;;;;6.15;5.30;;;;;;;;;;4972067;28;20199;-31
2023/09/13 07:56:41;;;;;;;6.20;5.60;;;;;;;;;;4968801;28;20320;-36
2023/09/13 07:59:13;;;;;;;6.38;5.70;;;;;;;;;;4973366;28;20220;-42
2023/09/13 08:01:40;;;;;;;5.50;5.00;;;;;;;;;;4976088;28;20259;-36
2023/09/13 08:04:10;;;;;;;6.13;5.45;;;;;;;;;;4969089;28;20205;-36
2023/09/13 08:06:41;;;;;;;6.78;4.38;;;;;;;;;;4973187;28;20200;-38
2023/09/13 08:09:18;;;;;;;4.82;4.13;;;;;;;;;;4965242;28;20284;-35
2023/09/13 08:11:47;;;;;;;6.47;4.85;;;;;;;;;;4976886;28;20675;-40
2023/09/13 08:14:15;;;;;;;4.88;4.18;;;;;;;;;;4974268;28;20209;-34
2023/09/13 08:16:42;;;;;;;4.90;4.50;;;;;;;;;;4974553;28;20238;-33
2023/09/13 08:19:09;;;;;;;5.15;4.65;;;;;;;;;;4973334;28;20317;-40
2023/09/13 08:21:37;;;;;;;6.45;4.20;;;;;;;;;;4970971;28;20304;-35
2023/09/13 08:24:05;;;;;;;5.10;4.47;;;;;;;;;;4972725;28;20237;-37
2023/09/13 08:26:32;;;;;;;5.60;4.90;;;;;;;;;;4971799;28;20232;-39
2023/09/13 08:29:03;;;;;;;4.88;4.40;;;;;;;;;;4973098;28;20284;-35
2023/09/13 08:31:31;;;;;;;9.65;4.45;;;;;;;;;;4975549;28;20196;-39
2023/09/13 08:33:58;;;;;;;6.10;4.03;;;;;;;;;;4976636;28;20276;-39
2023/09/13 08:36:25;;;;;;;3.63;3.10;;;;;;;;;;4978100;28;20235;-36
2023/09/13 08:38:53;;;;;;;4.45;4.05;;;;;;;;;;4973648;28;20205;-37
2023/09/13 08:41:20;;;;;;;5.00;4.25;;;;;;;;;;4973697;28;20208;-36
2023/09/13 08:43:47;;;;;;;4.25;3.85;;;;;;;;;;4978603;28;20205;-41
2023/09/13 08:46:16;;;;;;;3.60;3.15;;;;;;;;;;5244569;22;20475;-36
2023/09/13 08:48:45;;;;;;;4.25;3.90;;;;;;;;;;4999457;28;20203;-36
2023/09/13 08:51:29;;;;;;;5.18;3.88;;;;;;;;;;4985848;28;20232;-36
2023/09/13 08:53:56;;;;;;;5.35;3.38;;;;;;;;;;4980549;28;20204;-33
2023/09/13 08:56:24;;;;;;;5.20;3.25;;;;;;;;;;4979396;28;20255;-36
2023/09/13 08:58:53;;;;;;;4.00;3.33;;;;;;;;;;4979905;28;20239;-36
2023/09/13 09:01:21;;;;;;;3.28;3.08;;;;;;;;;;4981968;28;20254;-36
2023/09/13 09:03:50;;;;;;;3.88;3.55;;;;;;;;;;4983622;28;20211;-35
2023/09/13 09:06:17;;;;;;;4.73;3.30;;;;;;;;;;4983831;28;20207;-38
2023/09/13 09:08:46;;;;;;;3.23;3.00;;;;;;;;;;4977131;28;20200;-34
2023/09/13 09:11:14;;;;;;;3.67;3.03;;;;;;;;;;4983316;28;20299;-35
2023/09/13 09:13:43;;;;;;;3.70;3.40;;;;;;;;;;4989609;28;20287;-35
2023/09/13 09:16:11;;;;;;;3.63;2.58;;;;;;;;;;4983067;28;20226;-37
2023/09/13 09:18:39;;;;;;;3.63;3.10;;;;;;;;;;4975461;28;20219;-37
2023/09/13 09:21:08;;;;;;;2.97;2.60;;;;;;;;;;4979887;28;20204;-37
2023/09/13 09:23:38;;;;;;;4.38;2.83;;;;;;;;;;4981293;28;20204;-36
2023/09/13 09:26:05;;;;;;;3.38;3.08;;;;;;;;;;4980579;28;20204;-36
2023/09/13 09:28:32;;;;;;;3.23;2.80;;;;;;;;;;4985019;28;20215;-37
2023/09/13 09:31:02;;;;;;;4.23;2.93;;;;;;;;;;4977385;28;20232;-40
2023/09/13 09:33:29;;;;;;;3.13;2.88;;;;;;;;;;4981634;28;20212;-35
2023/09/13 09:35:58;;;;;;;5.05;3.28;;;;;;;;;;4981833;28;20233;-34
2023/09/13 09:38:27;;;;;;;2.80;2.60;;;;;;;;;;4991233;28;20207;-35
2023/09/13 09:40:57;;;;;;;3.30;2.38;;;;;;;;;;4978987;28;20602;-36
2023/09/13 09:43:24;;;;;;;2.88;2.42;;;;;;;;;;4982580;28;20208;-34
2023/09/13 09:45:51;;;;;;;2.67;2.47;;;;;;;;;;4982881;28;20215;-37
2023/09/13 09:48:19;;;;;;;2.75;2.55;;;;;;;;;;4979139;28;20214;-38
2023/09/13 09:50:47;;;;;;;4.00;2.63;;;;;;;;;;4977659;28;20235;-38
2023/09/13 09:53:14;;;;;;;3.17;2.60;;;;;;;;;;4980451;28;20235;-34
2023/09/13 09:55:43;;;;;;;2.63;2.30;;;;;;;;;;4977415;28;20278;-38
2023/09/13 09:58:11;;;;;;;3.20;2.90;;;;;;;;;;4982693;28;20208;-35
2023/09/13 10:00:48;;;;;;;4.70;2.73;;;;;;;;;;4983714;28;20228;-35
2023/09/13 10:03:18;;;;;;;2.90;2.70;;;;;;;;;;4981450;28;20501;-39
2023/09/13 10:05:52;;;;;;;2.73;2.53;;;;;;;;;;4990964;28;20606;-36
2023/09/13 10:08:19;;;;;;;5.00;2.90;;;;;;;;;;4987458;28;20197;-35
2023/09/13 10:10:51;;;;;;;3.03;2.73;;;;;;;;;;4980780;28;20227;-35
2023/09/13 10:13:18;;;;;;;2.67;2.38;;;;;;;;;;4985800;28;20210;-35
2023/09/13 10:15:46;;;;;;;3.07;2.70;;;;;;;;;;4982390;28;20246;-34
2023/09/13 10:18:15;;;;;;;3.90;2.60;;;;;;;;;;4984667;28;20209;-37
2023/09/13 10:20:43;;;;;;;3.00;2.70;;;;;;;;;;4985359;28;20707;-35
2023/09/13 10:23:13;;;;;;;4.97;2.80;;;;;;;;;;4984255;28;20204;-37
2023/09/13 10:25:42;;;;;;;3.53;2.90;;;;;;;;;;4978734;28;20575;-34
2023/09/13 10:28:11;;;;;;;2.53;2.20;;;;;;;;;;4981862;28;20208;-37
2023/09/13 10:30:39;;;;;;;2.87;2.67;;;;;;;;;;4974786;28;20283;-38
2023/09/13 10:33:08;;;;;;;2.90;2.60;;;;;;;;;;4980786;28;20303;-38
2023/09/13 10:35:38;;;;;;;2.87;2.67;;;;;;;;;;4978682;28;20204;-38
2023/09/13 10:38:10;;;;;;;3.13;2.75;;;;;;;;;;4981242;28;20207;-36
2023/09/13 10:40:39;;;;;;;3.00;2.70;;;;;;;;;;4981354;28;20223;-36
2023/09/13 10:43:08;;;;;;;2.90;2.47;;;;;;;;;;4981737;28;20235;-35
2023/09/13 10:45:41;;;;;;;3.03;2.80;;;;;;;;;;4986695;28;20337;-36
2023/09/13 10:48:09;;;;;;;4.50;2.88;;;;;;;;;;4979268;28;20717;-38
2023/09/13 10:50:36;;;;;;;4.10;2.97;;;;;;;;;;4982427;28;20232;-39
2023/09/13 10:53:03;;;;;;;4.05;3.05;;;;;;;;;;4979729;28;20266;-39
2023/09/13 10:55:31;;;;;;;2.58;2.38;;;;;;;;;;4973672;28;20340;-35
2023/09/13 10:57:58;;;;;;;2.90;2.47;;;;;;;;;;4982837;28;20267;-36
2023/09/13 11:00:31;;;;;;;2.97;2.78;;;;;;;;;;4981548;28;20319;-36
2023/09/13 11:03:00;;;;;;;4.37;3.07;;;;;;;;;;4981878;28;20215;-35
2023/09/13 11:05:28;;;;;;;2.90;2.50;;;;;;;;;;4977704;28;20213;-39
2023/09/13 11:07:56;;;;;;;2.83;2.63;;;;;;;;;;4983786;28;20284;-39
2023/09/13 11:10:23;;;;;;;3.38;2.80;;;;;;;;;;4981043;28;20350;-34
2023/09/13 11:12:50;;;;;;;2.75;2.55;;;;;;;;;;4984106;28;20232;-37
2023/09/13 11:15:21;;;;;;;2.63;2.42;;;;;;;;;;4983471;28;20212;-39
2023/09/13 11:17:48;;;;;;;2.67;2.47;;;;;;;;;;4982640;28;20223;-36
2023/09/13 11:20:24;;;;;;;2.95;2.53;;;;;;;;;;4980953;28;20314;-38
2023/09/13 11:23:01;;;;;;;3.58;3.00;;;;;;;;;;4982928;28;20286;-35
2023/09/13 11:25:31;;;;;;;4.35;3.45;;;;;;;;;;4981992;28;20212;-37
2023/09/13 11:27:58;;;;;;;5.55;3.20;;;;;;;;;;4982769;28;20226;-36
2023/09/13 11:30:40;;;;;;;2.88;2.63;;;;;;;;;;4977809;28;20228;-36
2023/09/13 11:33:08;;;;;;;3.10;2.85;;;;;;;;;;4979517;28;20203;-34
2023/09/13 11:35:39;;;;;;;3.83;2.80;;;;;;;;;;4982517;28;20209;-35
2023/09/13 11:38:08;;;;;;;3.38;2.55;;;;;;;;;;4987240;28;20240;-33
2023/09/13 11:40:35;;;;;;;2.55;2.35;;;;;;;;;;4981082;28;20238;-37
2023/09/13 11:43:02;;;;;;;2.97;2.55;;;;;;;;;;4975035;28;20205;-36
2023/09/13 11:45:30;;;;;;;2.50;2.30;;;;;;;;;;4980335;28;20300;-36
2023/09/13 11:47:58;;;;;;;3.60;3.15;;;;;;;;;;4985333;28;20197;-37
2023/09/13 11:50:25;;;;;;;2.72;2.53;;;;;;;;;;4982895;28;20588;-36
2023/09/13 11:53:15;;;;;;;2.92;2.72;;;;;;;;;;4984582;28;20220;-34
2023/09/13 11:55:45;;;;;;;2.53;2.33;;;;;;;;;;4978242;28;20299;-37
2023/09/13 11:58:16;;;;;;;3.80;2.53;;;;;;;;;;4986591;28;20308;-33
2023/09/13 12:00:44;;;;;;;2.60;2.40;;;;;;;;;;4982963;28;20287;-37
2023/09/13 12:03:11;;;;;;;3.00;2.72;;;;;;;;;;4980537;28;20283;-33
2023/09/13 12:05:39;;;;;;;3.28;2.58;;;;;;;;;;4979285;28;20207;-36
2023/09/13 12:08:21;;;;;;;3.38;2.60;;;;;;;;;;4976268;28;20201;-36
2023/09/13 12:10:49;;;;;;;2.72;2.25;;;;;;;;;;4983566;28;20229;-35
2023/09/13 12:13:16;;;;;;;3.08;2.58;;;;;;;;;;4988561;28;20207;-37
2023/09/13 12:15:59;;;;;;;2.88;2.58;;;;;;;;;;4989518;28;20216;-38
2023/09/13 12:18:26;;;;;;;2.42;2.10;;;;;;;;;;4984833;28;20228;-37
2023/09/13 12:20:58;;;;;;;3.67;2.90;;;;;;;;;;4980240;28;20247;-34
2023/09/13 12:23:27;;;;;;;3.17;2.58;;;;;;;;;;4973706;28;20206;-38
2023/09/13 12:25:54;;;;;;;2.60;2.20;;;;;;;;;;4976448;28;20214;-35
2023/09/13 12:28:28;;;;;;;3.20;2.53;;;;;;;;;;4982783;28;20201;-34
2023/09/13 12:30:55;;;;;;;3.13;2.83;;;;;;;;;;4984024;28;20231;-34
2023/09/13 12:33:23;;;;;;;3.38;3.03;;;;;;;;;;4974029;28;20233;-36
2023/09/13 12:35:51;;;;;;;2.60;2.40;;;;;;;;;;4981210;28;20207;-39
2023/09/13 12:38:19;;;;;;;3.05;2.70;;;;;;;;;;4975590;28;20225;-37
2023/09/13 12:40:54;;;;;;;3.80;2.30;;;;;;;;;;4976717;28;20690;-38
2023/09/13 12:43:28;;;;;;;3.13;2.60;;;;;;;;;;4984555;28;20262;-35
2023/09/13 12:45:58;;;;;;;2.70;2.50;;;;;;;;;;4984136;28;20219;-36
2023/09/13 12:48:26;;;;;;;2.83;2.63;;;;;;;;;;4977549;28;20218;-35
2023/09/13 12:50:54;;;;;;;3.78;2.60;;;;;;;;;;4980084;28;20237;-35
2023/09/13 12:53:21;;;;;;;2.78;2.40;;;;;;;;;;4979672;28;20243;-34
2023/09/13 12:55:49;;;;;;;2.92;2.70;;;;;;;;;;4973912;28;20207;-37
2023/09/13 12:58:18;;;;;;;2.63;2.40;;;;;;;;;;4980613;28;20236;-38
2023/09/13 13:00:52;;;;;;;3.60;2.65;;;;;;;;;;4972127;28;20238;-35
2023/09/13 13:03:19;;;;;;;3.90;2.83;;;;;;;;;;4975567;28;20209;-37
2023/09/13 13:05:47;;;;;;;2.60;2.40;;;;;;;;;;4977886;28;20242;-33
2023/09/13 13:08:14;;;;;;;2.90;2.47;;;;;;;;;;4986986;28;20204;-36
2023/09/13 13:10:55;;;;;;;3.05;2.75;;;;;;;;;;4980189;28;20227;-35
2023/09/13 13:13:30;;;;;;;3.83;2.60;;;;;;;;;;4979001;28;20303;-34
2023/09/13 13:15:58;;;;;;;2.55;2.30;;;;;;;;;;4979776;28;20299;-38
2023/09/13 13:18:25;;;;;;;2.72;2.30;;;;;;;;;;4982488;28;20622;-38
2023/09/13 13:20:52;;;;;;;4.55;2.58;;;;;;;;;;4978497;28;20220;-35
2023/09/13 13:23:20;;;;;;;2.85;2.63;;;;;;;;;;4983114;28;20209;-38
2023/09/13 13:25:47;;;;;;;2.75;2.55;;;;;;;;;;4974664;28;20210;-33
2023/09/13 13:28:14;;;;;;;2.90;2.70;;;;;;;;;;4972115;28;20273;-35
2023/09/13 13:30:43;;;;;;;3.42;2.42;;;;;;;;;;4978500;28;20292;-37
2023/09/13 13:33:10;;;;;;;2.67;2.47;;;;;;;;;;4984989;28;20210;-32
2023/09/13 13:35:37;;;;;;;2.88;2.35;;;;;;;;;;4976631;28;20212;-36
2023/09/13 13:38:05;;;;;;;2.88;2.45;;;;;;;;;;4984032;28;20234;-36
2023/09/13 13:40:32;;;;;;;2.72;2.28;;;;;;;;;;4980279;28;20284;-34
2023/09/13 13:43:00;;;;;;;2.70;2.50;;;;;;;;;;4982188;28;20210;-34
2023/09/13 13:45:27;;;;;;;2.58;2.38;;;;;;;;;;4985874;28;20204;-34
2023/09/13 13:47:55;;;;;;;5.38;4.45;;;;;;;;;;4982910;28;20221;-37
2023/09/13 13:50:22;;;;;;;5.43;3.00;;;;;;;;;;4981469;28;20322;-36
2023/09/13 13:52:50;;;;;;;2.35;2.15;;;;;;;;;;4972251;28;20204;-37
2023/09/13 13:55:18;;;;;;;2.88;2.60;;;;;;;;;;4975010;28;20324;-34
2023/09/13 13:57:45;;;;;;;2.65;2.30;;;;;;;;;;4986530;28;20316;-35
2023/09/13 14:00:13;;;;;;;2.47;2.28;;;;;;;;;;4976617;28;20227;-37
2023/09/13 14:02:41;;;;;;;2.33;2.17;;;;;;;;;;4974904;28;20207;-36
2023/09/13 14:05:09;;;;;;;2.53;2.30;;;;;;;;;;4985246;28;20202;-37
2023/09/13 14:07:45;;;;;;;2.38;2.17;;;;;;;;;;4983347;28;20219;-36
2023/09/13 14:10:12;;;;;;;3.75;2.55;;;;;;;;;;4976424;28;20317;-34
2023/09/13 14:12:43;;;;;;;2.08;1.98;;;;;;;;;;4973758;28;20214;-33
2023/09/13 14:15:11;;;;;;;2.38;2.20;;;;;;;;;;4978275;28;20201;-35
2023/09/13 14:17:38;;;;;;;2.80;2.60;;;;;;;;;;4981521;28;20240;-40
2023/09/13 14:20:05;;;;;;;2.42;2.22;;;;;;;;;;4982201;28;20292;-37
2023/09/13 14:22:34;;;;;;;2.67;2.38;;;;;;;;;;4981185;28;20217;-37
2023/09/13 14:25:01;;;;;;;3.90;2.78;;;;;;;;;;4976761;28;20212;-35
2023/09/13 14:27:28;;;;;;;2.55;2.38;;;;;;;;;;4981726;28;20204;-36
2023/09/13 14:29:55;;;;;;;2.45;2.25;;;;;;;;;;4978855;28;20225;-33
2023/09/13 14:32:22;;;;;;;2.40;2.20;;;;;;;;;;4974854;28;20214;-36
2023/09/13 14:34:52;;;;;;;3.40;2.60;;;;;;;;;;4979800;28;20284;-38
2023/09/13 14:37:19;;;;;;;2.35;2.15;;;;;;;;;;4985469;28;20235;-34
2023/09/13 14:39:48;;;;;;;2.58;2.38;;;;;;;;;;4972866;28;20226;-37
2023/09/13 14:42:16;;;;;;;3.03;2.20;;;;;;;;;;4980675;28;20214;-35
2023/09/13 14:44:43;;;;;;;2.90;2.20;;;;;;;;;;4985088;28;20222;-32
2023/09/13 14:47:10;;;;;;;2.50;2.30;;;;;;;;;;4992276;28;20296;-34
2023/09/13 14:49:39;;;;;;;2.70;2.40;;;;;;;;;;4982968;28;20246;-34
2023/09/13 14:52:08;;;;;;;2.80;2.60;;;;;;;;;;4980835;28;20250;-36
2023/09/13 14:54:35;;;;;;;2.60;2.40;;;;;;;;;;4980694;28;20225;-39
2023/09/13 14:57:03;;;;;;;4.40;2.60;;;;;;;;;;4976538;28;20209;-35
2023/09/13 14:59:31;;;;;;;2.85;2.40;;;;;;;;;;4987702;28;20228;-35
2023/09/13 15:01:59;;;;;;;3.13;2.88;;;;;;;;;;4985491;28;20216;-36
2023/09/13 15:04:26;;;;;;;2.63;2.42;;;;;;;;;;4981427;28;20214;-34
2023/09/13 15:06:53;;;;;;;5.07;2.47;;;;;;;;;;4975310;28;20210;-34
2023/09/13 15:09:20;;;;;;;2.70;2.45;;;;;;;;;;5065989;23;20241;-29
2023/09/13 15:11:48;;;;;;;3.50;2.63;;;;;;;;;;4966131;28;20687;-28
2023/09/13 15:14:17;;;;;;;2.92;2.53;;;;;;;;;;4969126;28;20214;-31
2023/09/13 15:16:46;;;;;;;2.50;2.30;;;;;;;;;;4966829;28;20290;-30
2023/09/13 15:19:13;;;;;;;3.10;2.75;;;;;;;;;;4956333;28;20242;-29
2023/09/13 15:21:40;;;;;;;2.80;2.60;;;;;;;;;;4973032;28;20219;-28
2023/09/13 15:24:07;;;;;;;2.92;2.53;;;;;;;;;;4970131;28;20208;-29
2023/09/13 15:26:34;;;;;;;3.13;2.55;;;;;;;;;;4970343;28;20212;-27
2023/09/13 15:29:01;;;;;;;2.40;2.20;;;;;;;;;;4956539;28;20228;-31
2023/09/13 15:31:30;;;;;;;2.80;2.45;;;;;;;;;;4960711;28;20207;-33
2023/09/13 15:33:58;;;;;;;2.60;2.35;;;;;;;;;;4958093;28;20221;-31
2023/09/13 15:36:28;;;;;;;2.35;2.25;;;;;;;;;;4967078;28;20213;-32
2023/09/13 15:38:55;;;;;;;2.55;2.35;;;;;;;;;;4962441;28;20227;-31
2023/09/13 15:41:22;;;;;;;3.65;2.30;;;;;;;;;;4965394;28;20228;-29
2023/09/13 15:43:49;;;;;;;3.20;2.60;;;;;;;;;;4968568;28;20206;-32
2023/09/13 15:46:16;;;;;;;2.47;2.30;;;;;;;;;;4965208;28;20202;-29
2023/09/13 15:48:46;;;;;;;3.03;2.60;;;;;;;;;;4958263;28;20206;-28
2023/09/13 15:51:14;;;;;;;2.80;2.60;;;;;;;;;;4963067;28;20637;-29
2023/09/13 15:53:41;;;;;;;2.28;2.13;;;;;;;;;;4961732;28;20211;-30
2023/09/13 15:56:08;;;;;;;3.25;2.53;;;;;;;;;;4962182;28;20215;-29
2023/09/13 15:58:35;;;;;;;3.42;2.83;;;;;;;;;;4958725;28;20226;-30
2023/09/13 16:01:02;;;;;;;5.03;2.70;;;;;;;;;;4956162;28;20215;-31
2023/09/13 16:03:30;;;;;;;2.30;2.20;;;;;;;;;;4956416;28;20205;-29
2023/09/13 16:05:58;;;;;;;3.25;2.80;;;;;;;;;;4960428;28;20232;-28